TNCC/CUR METAR and TAF weather

Enter ICAO airport designator
Station Type Date Time Source
TNCC METAR 2021/03/04 23:00 UTC NOAA

TNCC 042300Z 08011KT 9999 FEW018 27/21 Q1011 NOSIG


Station Type Date Time Source
TNCC Decoded METAR 2021/03/04 23:00 UTC NOAA

Hato Airport, Curacao, Netherlands Antilles (TNCC) 12-12N 068-58W 67M
Mar 04, 2021 - 06:00 PM EST / 2021.03.04 2300 UTC
Wind: from the E (080 degrees) at 13 MPH (11 KT):0
Visibility: greater than 7 mile(s):0
Sky conditions: mostly clear
Temperature: 80 F (27 C)
Dew Point: 69 F (21 C)
Relative Humidity: 69%
Pressure (altimeter): 29.85 in. Hg (1011 hPa)
ob: TNCC 042300Z 08011KT 9999 FEW018 27/21 Q1011 NOSIG
cycle: 23

Station Type Date Time Source
TNCC TAF 2021/03/04 18:24 UTC NOAA

TAF TNCC 041715Z 0418/0518 10011KT 9999 SCT020 PROB30
TEMPO 0506/0514 BKN014

Example: see airport list